createdAt,value
2023-02-23T00:33:41.491Z,15.48
2023-02-23T00:36:15.274Z,15.75
2023-02-23T00:38:53.674Z,15.80
2023-02-23T00:49:05.304Z,17.40
2023-02-23T00:51:37.764Z,16.27
2023-02-23T00:54:14.969Z,16.40
2023-02-23T01:04:24.768Z,17.23
2023-02-23T01:06:56.933Z,16.50
2023-02-23T01:09:31.640Z,17.58
2023-02-23T01:12:07.685Z,15.38
2023-02-23T01:14:40.578Z,17.35
2023-02-23T01:17:12.687Z,17.10
2023-02-23T01:19:44.783Z,17.35
2023-02-23T01:22:16.864Z,17.42
2023-02-23T01:24:51.521Z,16.25
2023-02-23T01:27:24.144Z,18.10
2023-02-23T01:29:56.196Z,16.70
2023-02-23T01:32:28.243Z,17.08
2023-02-23T01:35:00.295Z,18.27
2023-02-23T01:37:35.514Z,18.67
2023-02-23T01:40:15.309Z,17.83
2023-02-23T01:42:47.573Z,16.45
2023-02-23T01:45:27.259Z,17.67
2023-02-23T01:48:03.925Z,17.25
2023-02-23T01:50:45.243Z,17.25
2023-02-23T01:53:21.482Z,16.73
2023-02-23T01:55:58.931Z,18.13
2023-02-23T01:58:32.427Z,16.83
2023-02-23T02:01:05.656Z,16.92
2023-02-23T02:03:45.025Z,16.23
2023-02-23T02:06:19.901Z,16.88
2023-02-23T02:08:55.301Z,15.65
2023-02-23T02:11:31.058Z,17.95
2023-02-23T02:14:12.944Z,18.30
2023-02-23T02:17:02.551Z,18.00
2023-02-23T02:20:13.751Z,18.65
2023-02-23T02:23:11.054Z,17.85
2023-02-23T02:25:55.841Z,16.67
2023-02-23T02:28:46.430Z,17.73
2023-02-23T02:31:58.950Z,16.52
2023-02-23T02:35:04.053Z,17.25
2023-02-23T02:37:56.831Z,18.23
2023-02-23T02:40:37.051Z,17.20
2023-02-23T02:43:16.822Z,18.42
2023-02-23T02:45:54.469Z,17.70
2023-02-23T02:48:35.536Z,17.02
2023-02-23T02:51:18.134Z,17.85
2023-02-23T02:54:06.998Z,16.77
2023-02-23T02:56:43.084Z,16.70
2023-02-23T02:59:36.018Z,17.70
2023-02-23T03:02:34.246Z,16.00
2023-02-23T03:05:32.478Z,16.73
2023-02-23T03:08:34.784Z,18.23
2023-02-23T03:11:30.879Z,18.85
2023-02-23T03:14:33.907Z,16.45
2023-02-23T03:17:31.774Z,16.52
2023-02-23T03:20:30.638Z,17.52
2023-02-23T03:23:29.765Z,15.77
2023-02-23T03:26:27.031Z,15.63
2023-02-23T03:29:24.359Z,17.25
2023-02-23T03:32:22.608Z,16.30
2023-02-23T03:35:20.996Z,15.90
2023-02-23T03:38:16.475Z,17.27
2023-02-23T03:41:10.241Z,18.17
2023-02-23T03:44:12.287Z,16.40
2023-02-23T03:47:07.021Z,17.17
2023-02-23T03:50:00.027Z,16.40
2023-02-23T03:52:54.546Z,17.55
2023-02-23T03:55:49.231Z,16.65
2023-02-23T03:58:44.424Z,17.58
2023-02-23T04:01:36.840Z,18.40
2023-02-23T04:04:31.031Z,17.23
2023-02-23T04:07:23.073Z,17.00
2023-02-23T04:10:14.071Z,17.88
2023-02-23T04:13:13.607Z,17.25
2023-02-23T04:15:50.952Z,17.95
2023-02-23T04:18:26.371Z,19.33
2023-02-23T04:21:01.964Z,17.67
2023-02-23T04:23:35.590Z,16.98
2023-02-23T04:26:07.620Z,19.27
2023-02-23T04:28:39.688Z,17.65
2023-02-23T04:31:11.697Z,17.35
2023-02-23T04:33:43.718Z,18.05
2023-02-23T04:36:18.310Z,17.48
2023-02-23T04:38:50.356Z,17.98
2023-02-23T04:41:22.462Z,19.63
2023-02-23T04:43:54.518Z,17.55
2023-02-23T04:46:26.603Z,18.80
2023-02-23T04:48:58.727Z,19.33
2023-02-23T04:51:34.112Z,18.58
2023-02-23T04:54:06.259Z,19.00
2023-02-23T04:56:39.555Z,18.00
2023-02-23T04:59:11.699Z,20.63
2023-02-23T05:01:43.825Z,21.80
2023-02-23T05:04:15.968Z,19.92
2023-02-23T05:06:50.774Z,23.20
2023-02-23T05:09:22.858Z,20.80
2023-02-23T05:11:55.608Z,21.10
2023-02-23T05:14:27.908Z,23.42
2023-02-23T05:16:59.964Z,21.95
2023-02-23T05:19:32.044Z,23.17
2023-02-23T05:22:06.649Z,22.50
2023-02-23T05:24:39.011Z,23.27
2023-02-23T05:27:13.976Z,21.17
2023-02-23T05:29:46.058Z,38.95
2023-02-23T05:32:18.224Z,43.58
2023-02-23T05:34:50.348Z,30.70
2023-02-23T05:37:25.055Z,26.48
2023-02-23T05:39:57.086Z,25.70
2023-02-23T05:42:29.149Z,23.83
2023-02-23T05:45:01.218Z,24.58
2023-02-23T05:47:35.590Z,26.85
2023-02-23T05:50:12.937Z,24.48
2023-02-23T05:52:47.710Z,24.10
2023-02-23T05:55:21.686Z,22.23
2023-02-23T05:57:53.898Z,23.98
2023-02-23T06:00:26.148Z,27.92
2023-02-23T06:02:58.369Z,24.40
2023-02-23T06:05:30.510Z,25.17
2023-02-23T06:08:06.048Z,24.00
2023-02-23T06:10:38.074Z,23.55
2023-02-23T06:13:10.543Z,21.58
2023-02-23T06:15:43.488Z,21.48
2023-02-23T06:18:15.846Z,20.38
2023-02-23T06:20:50.857Z,21.27
2023-02-23T06:23:25.473Z,19.30
2023-02-23T06:25:58.698Z,21.48
2023-02-23T06:28:30.812Z,21.02
2023-02-23T06:31:03.057Z,21.48
2023-02-23T06:33:35.364Z,20.27
2023-02-23T06:36:08.230Z,20.35
2023-02-23T06:38:42.832Z,20.38
2023-02-23T06:41:16.474Z,19.98
2023-02-23T06:43:48.633Z,20.27
2023-02-23T06:46:20.841Z,20.58
2023-02-23T06:48:55.848Z,18.20
2023-02-23T06:51:28.087Z,20.15
2023-02-23T06:54:02.698Z,20.30
2023-02-23T06:56:34.714Z,20.90
2023-02-23T06:59:07.395Z,20.85
2023-02-23T07:01:39.489Z,21.20
2023-02-23T07:04:11.871Z,22.17
2023-02-23T07:06:44.180Z,20.83
2023-02-23T07:09:18.936Z,20.80
2023-02-23T07:11:51.890Z,21.05
2023-02-23T07:14:26.955Z,21.75
2023-02-23T07:16:59.614Z,20.92
2023-02-23T07:19:32.055Z,19.50
2023-02-23T07:22:05.113Z,20.13
2023-02-23T07:24:39.892Z,20.27
2023-02-23T07:27:11.904Z,19.00
2023-02-23T07:29:43.927Z,20.08
2023-02-23T07:32:16.094Z,19.92
2023-02-23T07:34:48.189Z,20.58
2023-02-23T07:37:20.375Z,21.92
2023-02-23T07:39:55.042Z,21.77
2023-02-23T07:42:27.218Z,21.58
2023-02-23T07:45:01.895Z,20.83
2023-02-23T07:47:35.042Z,21.50
2023-02-23T07:50:10.041Z,22.58
2023-02-23T07:52:43.311Z,22.27
2023-02-23T07:55:18.571Z,22.40
2023-02-23T07:57:50.713Z,21.70
2023-02-23T08:00:25.132Z,22.17
2023-02-23T08:02:57.218Z,20.13
2023-02-23T08:05:32.853Z,19.98
2023-02-23T08:08:05.235Z,20.83
2023-02-23T08:10:40.136Z,20.55
2023-02-23T08:13:12.234Z,21.42
2023-02-23T08:15:44.343Z,21.13
2023-02-23T08:18:19.047Z,20.50
2023-02-23T08:20:51.196Z,20.77
2023-02-23T08:23:23.295Z,20.75
2023-02-23T08:25:59.758Z,21.25
2023-02-23T08:28:31.954Z,20.27
2023-02-23T08:31:08.728Z,19.33
2023-02-23T08:33:40.913Z,17.42
2023-02-23T08:36:12.997Z,17.15
2023-02-23T08:38:45.095Z,15.45
2023-02-23T08:41:20.249Z,15.95
2023-02-23T08:43:52.500Z,15.80
2023-02-23T08:46:24.545Z,14.65
2023-02-23T08:48:57.030Z,12.23
2023-02-23T08:51:31.891Z,11.55
2023-02-23T08:54:04.201Z,12.07
2023-02-23T08:56:39.022Z,10.70
2023-02-23T08:59:12.897Z,12.40
2023-02-23T09:01:44.987Z,11.82
2023-02-23T09:04:18.298Z,12.80
2023-02-23T09:06:50.639Z,9.38
2023-02-23T09:09:22.691Z,9.57
2023-02-23T09:11:59.096Z,10.07
2023-02-23T09:14:32.378Z,7.03
2023-02-23T09:17:04.528Z,7.45
2023-02-23T09:19:36.651Z,7.50
2023-02-23T09:22:08.711Z,7.90
2023-02-23T09:24:40.729Z,7.45
2023-02-23T09:27:15.588Z,7.85
2023-02-23T09:29:47.812Z,8.30
2023-02-23T09:32:19.947Z,7.30
2023-02-23T09:34:52.652Z,7.18
2023-02-23T09:37:25.289Z,6.75
2023-02-23T09:39:58.152Z,5.85
2023-02-23T09:42:47.701Z,6.57
2023-02-23T09:45:32.712Z,6.75
2023-02-23T09:48:13.075Z,6.78
2023-02-23T09:50:48.867Z,6.78
2023-02-23T09:53:35.790Z,7.10
2023-02-23T09:56:18.784Z,6.78
2023-02-23T09:58:55.489Z,6.47
2023-02-23T10:02:00.324Z,6.13
2023-02-23T10:04:40.865Z,6.13
2023-02-23T10:07:19.035Z,7.82
2023-02-23T10:10:15.917Z,5.88
2023-02-23T10:12:55.177Z,6.63
2023-02-23T10:15:40.828Z,7.50
2023-02-23T10:18:23.274Z,7.28
2023-02-23T10:21:05.654Z,7.05
2023-02-23T10:23:40.779Z,6.20
2023-02-23T12:23:32.698Z,6.80
2023-02-23T12:26:11.665Z,5.85
2023-02-23T12:28:51.617Z,5.70
2023-02-23T12:31:28.506Z,5.43
2023-02-23T12:41:59.456Z,5.68
2023-02-23T12:44:40.196Z,6.30
2023-02-23T12:47:21.863Z,5.75
2023-02-23T12:50:07.615Z,6.10
2023-02-23T12:52:48.140Z,5.25
2023-02-23T12:55:30.968Z,5.85
2023-02-23T12:58:07.965Z,5.38
2023-02-23T13:00:50.466Z,5.88
2023-02-23T13:03:40.818Z,5.95
2023-02-23T13:06:22.991Z,5.25
2023-02-23T13:09:11.351Z,5.75
2023-02-23T13:19:34.076Z,5.28
2023-02-23T13:35:17.335Z,4.60
2023-02-23T13:37:54.051Z,3.75
2023-02-23T13:40:35.782Z,3.70
2023-02-23T13:43:17.756Z,3.85
2023-02-23T13:46:03.497Z,3.50
2023-02-23T13:48:56.192Z,3.53
2023-02-23T13:51:37.600Z,3.70
2023-02-23T13:54:24.806Z,3.75
2023-02-23T13:57:01.950Z,4.25
2023-02-23T13:59:42.308Z,3.42
2023-02-23T14:02:34.712Z,3.53
2023-02-23T14:05:17.150Z,3.25
2023-02-23T14:07:53.740Z,2.65
2023-02-23T14:10:29.767Z,3.60
2023-02-23T14:13:27.594Z,3.72
2023-02-23T14:16:16.040Z,3.47
2023-02-23T14:18:58.010Z,3.50
2023-02-23T14:21:34.804Z,3.72
2023-02-23T14:24:17.810Z,2.85
2023-02-23T14:27:40.311Z,2.58
2023-02-23T14:30:22.801Z,2.60
2023-02-23T14:33:10.133Z,3.05
2023-02-23T14:35:53.023Z,3.60
2023-02-23T14:38:47.381Z,5.00
2023-02-23T14:41:22.352Z,3.58
2023-02-23T14:44:00.232Z,2.75
2023-02-23T14:46:37.350Z,3.33
2023-02-23T14:49:17.702Z,2.90
2023-02-23T14:51:52.600Z,2.90
2023-02-23T14:54:29.912Z,3.78
2023-02-23T14:57:04.828Z,3.72
2023-02-23T14:59:42.824Z,3.63
2023-02-23T15:02:24.325Z,3.97
2023-02-23T15:04:56.811Z,3.72
2023-02-23T15:07:32.962Z,3.03
2023-02-23T15:10:10.592Z,2.28
2023-02-23T15:12:42.912Z,2.53
2023-02-23T15:15:18.522Z,3.08
2023-02-23T15:17:56.307Z,3.20
2023-02-23T15:23:09.150Z,3.40
2023-02-23T15:25:41.685Z,2.65
2023-02-23T15:28:32.653Z,3.10
2023-02-23T15:31:12.883Z,2.40
2023-02-23T15:33:50.892Z,2.88
2023-02-23T15:36:28.725Z,2.63
2023-02-23T15:39:03.950Z,3.17
2023-02-23T15:41:38.428Z,3.45
2023-02-23T15:44:15.019Z,3.78
2023-02-23T15:46:52.708Z,4.05
2023-02-23T15:49:31.851Z,2.95
2023-02-23T15:52:07.280Z,3.30
2023-02-23T15:54:50.738Z,3.58
2023-02-23T15:57:30.499Z,3.70
2023-02-23T16:00:16.554Z,3.55
2023-02-23T16:02:49.004Z,3.33
2023-02-23T16:05:25.891Z,2.88
2023-02-23T16:08:06.345Z,3.72
2023-02-23T16:10:47.078Z,3.72
2023-02-23T16:13:21.767Z,3.80
2023-02-23T16:15:55.137Z,3.30
2023-02-23T16:18:37.213Z,4.00
2023-02-23T16:21:17.085Z,4.60
2023-02-23T16:23:52.205Z,3.42
2023-02-23T16:26:27.248Z,3.63
2023-02-23T16:29:02.148Z,3.97
2023-02-23T16:31:43.532Z,3.92
2023-02-23T16:34:23.983Z,3.72
2023-02-23T16:37:00.808Z,3.05
2023-02-23T16:39:34.358Z,3.55
2023-02-23T16:42:06.402Z,3.40
2023-02-23T16:44:43.705Z,3.17
2023-02-23T16:50:20.193Z,3.60
2023-02-23T16:52:55.669Z,4.10
2023-02-23T16:55:29.220Z,3.75
2023-02-23T16:58:03.990Z,4.43
2023-02-23T17:00:36.365Z,4.38
2023-02-23T17:03:16.451Z,4.20
2023-02-23T17:05:48.861Z,4.10
2023-02-23T17:08:24.530Z,4.85
2023-02-23T17:10:57.453Z,4.63
2023-02-23T17:13:33.357Z,5.28
2023-02-23T17:16:07.822Z,5.40
2023-02-23T17:18:42.804Z,5.38
2023-02-23T17:21:16.283Z,5.43
2023-02-23T17:24:02.982Z,5.15
2023-02-23T17:29:11.279Z,5.63
2023-02-23T17:39:22.106Z,6.70
2023-02-23T17:41:55.379Z,6.22
2023-02-23T17:44:29.458Z,6.43
2023-02-23T17:47:01.570Z,6.38
2023-02-23T17:49:33.604Z,6.70
2023-02-23T17:52:05.925Z,6.50
2023-02-23T17:54:40.577Z,6.72
2023-02-23T17:57:13.348Z,8.23
2023-02-23T17:59:45.419Z,8.63
2023-02-23T18:02:20.871Z,8.35
2023-02-23T18:04:53.190Z,7.90
2023-02-23T18:07:25.315Z,8.60
2023-02-23T18:09:59.947Z,8.25
2023-02-23T18:12:32.583Z,8.93
2023-02-23T18:15:05.653Z,9.45
2023-02-23T18:17:37.869Z,10.77
2023-02-23T18:20:15.051Z,10.23
2023-02-23T18:22:47.394Z,9.52
2023-02-23T18:25:25.591Z,9.55
2023-02-23T18:27:59.234Z,9.13
2023-02-23T18:30:31.358Z,10.40
2023-02-23T18:33:04.490Z,11.35
2023-02-23T18:35:39.047Z,9.50
2023-02-23T18:38:14.160Z,9.60
2023-02-23T18:40:49.139Z,9.80
2023-02-23T18:43:21.157Z,9.23
2023-02-23T18:45:53.184Z,8.48
2023-02-23T18:48:25.339Z,10.15
2023-02-23T18:50:59.226Z,9.45
2023-02-23T18:53:31.606Z,9.77
2023-02-23T18:56:12.534Z,10.23
2023-02-23T18:58:45.170Z,9.32
2023-02-23T19:01:20.806Z,8.75
2023-02-23T19:03:54.029Z,7.45
2023-02-23T19:06:26.959Z,8.70
2023-02-23T19:09:00.171Z,8.05
2023-02-23T19:11:36.026Z,7.90
2023-02-23T19:14:10.617Z,7.15
2023-02-23T19:16:43.579Z,7.75
2023-02-23T19:19:16.205Z,7.20
2023-02-23T19:21:48.223Z,6.97
2023-02-23T19:24:20.727Z,7.82
2023-02-23T19:26:55.329Z,6.70
2023-02-23T19:29:27.416Z,7.63
2023-02-23T19:31:59.576Z,6.55
2023-02-23T19:34:31.698Z,6.88
2023-02-23T19:37:03.865Z,6.40
2023-02-23T19:39:36.295Z,6.78
2023-02-23T19:42:10.949Z,7.18
2023-02-23T19:44:43.235Z,6.85
2023-02-23T19:47:15.285Z,8.00
2023-02-23T19:49:47.360Z,6.55
2023-02-23T19:52:19.584Z,6.70
2023-02-23T19:54:54.130Z,5.70
2023-02-23T19:57:28.928Z,6.70
2023-02-23T20:00:00.955Z,5.72
2023-02-23T20:02:33.130Z,5.65
2023-02-23T20:05:05.679Z,6.30
2023-02-23T20:07:37.809Z,5.85
2023-02-23T20:10:16.132Z,7.13
2023-02-23T20:12:51.049Z,6.82
2023-02-23T20:15:23.047Z,6.43
2023-02-23T20:17:55.061Z,7.70
2023-02-23T20:20:29.437Z,7.55
2023-02-23T20:23:07.942Z,7.18
2023-02-23T20:25:44.395Z,7.13
2023-02-23T20:28:19.029Z,7.57
2023-02-23T20:30:51.378Z,7.45
2023-02-23T20:33:23.424Z,8.35
2023-02-23T20:35:55.565Z,6.93
2023-02-23T20:38:27.618Z,6.80
2023-02-23T20:41:03.153Z,7.00
2023-02-23T20:43:39.234Z,7.38
2023-02-23T20:46:20.191Z,5.85
2023-02-23T20:48:52.294Z,5.90
2023-02-23T20:51:27.566Z,7.03
2023-02-23T20:54:19.987Z,7.70
2023-02-23T20:57:07.730Z,5.22
2023-02-23T20:59:48.951Z,6.97
2023-02-23T21:02:21.265Z,8.52
2023-02-23T21:04:53.511Z,6.15
2023-02-23T21:07:25.564Z,6.97
2023-02-23T21:10:00.521Z,6.03
2023-02-23T21:12:32.545Z,7.15
2023-02-23T21:15:09.380Z,6.65
2023-02-23T21:17:45.034Z,7.20
2023-02-23T21:20:20.029Z,7.15
2023-02-23T21:22:53.224Z,8.35
2023-02-23T21:25:26.348Z,7.78
2023-02-23T21:28:02.111Z,8.32
2023-02-23T21:30:39.471Z,9.40
2023-02-23T21:33:11.535Z,9.30
2023-02-23T21:35:46.710Z,8.30
2023-02-23T21:38:19.320Z,9.05
2023-02-23T21:40:51.592Z,9.65
2023-02-23T21:43:28.059Z,9.27
2023-02-23T21:46:10.054Z,9.15
2023-02-23T21:48:43.088Z,8.57
2023-02-23T21:51:16.343Z,9.15
2023-02-23T21:53:48.325Z,9.48
2023-02-23T21:56:24.550Z,10.00
2023-02-23T21:58:56.744Z,9.45
2023-02-23T22:01:36.526Z,9.48
2023-02-23T22:04:11.661Z,9.98
2023-02-23T22:06:44.666Z,9.95
2023-02-23T22:09:16.751Z,10.10
2023-02-23T22:11:51.742Z,9.63
2023-02-23T22:14:24.193Z,9.45
2023-02-23T22:16:59.175Z,10.38
2023-02-23T22:19:31.471Z,9.57
2023-02-23T22:22:03.527Z,9.32
2023-02-23T22:24:35.530Z,9.80
2023-02-23T22:27:07.845Z,9.85
2023-02-23T22:29:39.837Z,10.02
2023-02-23T22:32:14.697Z,10.05
2023-02-23T22:34:46.868Z,10.52
2023-02-23T22:37:22.004Z,8.35
2023-02-23T22:39:54.213Z,8.85
2023-02-23T22:42:29.682Z,10.75
2023-02-23T22:45:01.814Z,10.57
2023-02-23T22:47:36.704Z,9.82
2023-02-23T22:50:12.175Z,9.73
2023-02-23T22:52:44.361Z,9.93
2023-02-23T22:55:16.652Z,8.82
2023-02-23T22:57:48.861Z,10.32
2023-02-23T23:00:21.638Z,9.00
2023-02-23T23:02:56.216Z,7.90
2023-02-23T23:05:28.300Z,7.60
2023-02-23T23:08:00.315Z,6.75
2023-02-23T23:10:32.373Z,8.07
2023-02-23T23:13:05.381Z,7.05
2023-02-23T23:15:40.703Z,7.57
2023-02-23T23:18:20.830Z,7.40
2023-02-23T23:20:55.456Z,6.25
2023-02-23T23:23:27.450Z,7.78
2023-02-23T23:26:00.035Z,7.60
2023-02-23T23:28:40.126Z,7.40
2023-02-23T23:31:12.167Z,8.57
2023-02-23T23:33:49.613Z,7.95
2023-02-23T23:36:24.126Z,9.25
2023-02-23T23:38:56.858Z,6.80
2023-02-23T23:41:30.790Z,8.25
2023-02-23T23:44:05.366Z,7.18
2023-02-23T23:46:42.688Z,7.80
2023-02-23T23:49:19.480Z,8.45
2023-02-23T23:51:56.278Z,7.88
2023-02-23T23:54:32.972Z,7.82
2023-02-23T23:57:06.884Z,7.35
2023-02-23T23:59:46.009Z,8.77
